sensor_id;sensor_type;location;lat;lon;timestamp;temperature;humidity
33093;DHT22;19456;46.104;12.908;2023-02-08T00:02:11;-1.60;99.90
33093;DHT22;19456;46.104;12.908;2023-02-08T00:04:37;-1.80;99.90
33093;DHT22;19456;46.104;12.908;2023-02-08T00:07:02;-1.80;99.90
33093;DHT22;19456;46.104;12.908;2023-02-08T00:09:28;-1.80;99.90
33093;DHT22;19456;46.104;12.908;2023-02-08T00:11:54;-1.80;99.90
33093;DHT22;19456;46.104;12.908;2023-02-08T00:14:20;-1.80;99.90
33093;DHT22;19456;46.104;12.908;2023-02-08T00:16:46;-1.80;99.90
33093;DHT22;19456;46.104;12.908;2023-02-08T00:19:11;-1.80;99.90
33093;DHT22;19456;46.104;12.908;2023-02-08T00:21:37;-1.80;99.90
33093;DHT22;19456;46.104;12.908;2023-02-08T00:24:02;-1.80;99.90
33093;DHT22;19456;46.104;12.908;2023-02-08T00:26:28;-1.70;99.90
33093;DHT22;19456;46.104;12.908;2023-02-08T00:28:53;-1.30;99.90
33093;DHT22;19456;46.104;12.908;2023-02-08T00:31:19;-1.00;99.90
33093;DHT22;19456;46.104;12.908;2023-02-08T00:33:45;-0.80;99.90
33093;DHT22;19456;46.104;12.908;2023-02-08T00:36:10;-0.70;99.90
33093;DHT22;19456;46.104;12.908;2023-02-08T00:38:36;-0.60;99.90
33093;DHT22;19456;46.104;12.908;2023-02-08T00:41:02;-0.80;99.90
33093;DHT22;19456;46.104;12.908;2023-02-08T00:43:28;-0.90;99.90
33093;DHT22;19456;46.104;12.908;2023-02-08T00:45:54;-0.80;99.90
33093;DHT22;19456;46.104;12.908;2023-02-08T00:48:20;-0.80;99.90
33093;DHT22;19456;46.104;12.908;2023-02-08T00:50:55;-0.70;99.90
33093;DHT22;19456;46.104;12.908;2023-02-08T00:53:21;-0.90;99.90
33093;DHT22;19456;46.104;12.908;2023-02-08T00:55:53;-1.20;99.90
33093;DHT22;19456;46.104;12.908;2023-02-08T00:58:19;-1.30;99.90
33093;DHT22;19456;46.104;12.908;2023-02-08T01:00:45;-1.60;99.90
33093;DHT22;19456;46.104;12.908;2023-02-08T01:03:10;-1.70;99.90
33093;DHT22;19456;46.104;12.908;2023-02-08T01:05:37;-1.80;99.90
33093;DHT22;19456;46.104;12.908;2023-02-08T01:08:03;-2.00;99.90
33093;DHT22;19456;46.104;12.908;2023-02-08T01:10:29;-2.30;99.90
33093;DHT22;19456;46.104;12.908;2023-02-08T01:12:54;-2.60;99.90
33093;DHT22;19456;46.104;12.908;2023-02-08T01:15:20;-2.60;99.90
33093;DHT22;19456;46.104;12.908;2023-02-08T01:17:46;-2.70;99.90
33093;DHT22;19456;46.104;12.908;2023-02-08T01:20:11;-3.00;99.90
33093;DHT22;19456;46.104;12.908;2023-02-08T01:22:37;-3.10;99.90
33093;DHT22;19456;46.104;12.908;2023-02-08T01:25:02;-3.10;99.90
33093;DHT22;19456;46.104;12.908;2023-02-08T01:27:28;-3.00;99.90
33093;DHT22;19456;46.104;12.908;2023-02-08T01:29:54;-2.90;99.90
33093;DHT22;19456;46.104;12.908;2023-02-08T01:32:19;-2.80;99.90
33093;DHT22;19456;46.104;12.908;2023-02-08T01:34:45;-3.00;99.90
33093;DHT22;19456;46.104;12.908;2023-02-08T01:37:10;-3.10;99.90
33093;DHT22;19456;46.104;12.908;2023-02-08T01:39:36;-3.00;99.90
33093;DHT22;19456;46.104;12.908;2023-02-08T01:42:01;-2.80;99.90
33093;DHT22;19456;46.104;12.908;2023-02-08T01:47:11;-2.90;99.90
33093;DHT22;19456;46.104;12.908;2023-02-08T01:49:37;-2.80;99.90
33093;DHT22;19456;46.104;12.908;2023-02-08T01:52:13;-2.70;99.90
33093;DHT22;19456;46.104;12.908;2023-02-08T01:54:46;-2.70;99.90
33093;DHT22;19456;46.104;12.908;2023-02-08T01:57:13;-2.90;99.90
33093;DHT22;19456;46.104;12.908;2023-02-08T01:59:41;-3.20;99.90
33093;DHT22;19456;46.104;12.908;2023-02-08T02:02:09;-3.10;99.90
33093;DHT22;19456;46.104;12.908;2023-02-08T02:04:35;-3.20;99.90
33093;DHT22;19456;46.104;12.908;2023-02-08T02:07:01;-3.30;99.90
33093;DHT22;19456;46.104;12.908;2023-02-08T02:09:30;-3.10;99.90
33093;DHT22;19456;46.104;12.908;2023-02-08T02:11:57;-3.10;99.90
33093;DHT22;19456;46.104;12.908;2023-02-08T02:14:23;-3.20;99.90
33093;DHT22;19456;46.104;12.908;2023-02-08T02:16:48;-3.20;99.90
33093;DHT22;19456;46.104;12.908;2023-02-08T02:22:11;-3.60;99.90
33093;DHT22;19456;46.104;12.908;2023-02-08T02:45:41;-3.30;99.90
33093;DHT22;19456;46.104;12.908;2023-02-08T02:50:52;-3.20;99.90
33093;DHT22;19456;46.104;12.908;2023-02-08T02:53:26;-3.00;99.90
33093;DHT22;19456;46.104;12.908;2023-02-08T02:55:55;-3.10;99.90
33093;DHT22;19456;46.104;12.908;2023-02-08T02:58:22;-3.10;99.90
33093;DHT22;19456;46.104;12.908;2023-02-08T03:00:53;-3.10;99.90
33093;DHT22;19456;46.104;12.908;2023-02-08T03:03:19;-3.10;99.90
33093;DHT22;19456;46.104;12.908;2023-02-08T03:05:46;-3.50;99.90
33093;DHT22;19456;46.104;12.908;2023-02-08T03:18:33;-3.60;99.90
33093;DHT22;19456;46.104;12.908;2023-02-08T03:21:10;-3.70;99.90
33093;DHT22;19456;46.104;12.908;2023-02-08T03:23:42;-3.80;99.90
33093;DHT22;19456;46.104;12.908;2023-02-08T03:26:22;-3.70;99.90
33093;DHT22;19456;46.104;12.908;2023-02-08T03:36:24;-3.80;99.90
33093;DHT22;19456;46.104;12.908;2023-02-08T03:38:49;-4.10;99.90
33093;DHT22;19456;46.104;12.908;2023-02-08T03:41:18;-4.10;99.90
33093;DHT22;19456;46.104;12.908;2023-02-08T03:43:53;-3.80;99.90
33093;DHT22;19456;46.104;12.908;2023-02-08T03:46:22;-3.40;99.90
33093;DHT22;19456;46.104;12.908;2023-02-08T03:48:50;-3.30;99.90
33093;DHT22;19456;46.104;12.908;2023-02-08T03:51:18;-3.10;99.90
33093;DHT22;19456;46.104;12.908;2023-02-08T03:53:45;-3.00;99.90
33093;DHT22;19456;46.104;12.908;2023-02-08T03:56:29;-3.10;99.90
33093;DHT22;19456;46.104;12.908;2023-02-08T03:58:59;-3.10;99.90
33093;DHT22;19456;46.104;12.908;2023-02-08T04:01:31;-3.10;99.90
33093;DHT22;19456;46.104;12.908;2023-02-08T04:03:57;-3.30;99.90
33093;DHT22;19456;46.104;12.908;2023-02-08T04:06:24;-3.50;99.90
33093;DHT22;19456;46.104;12.908;2023-02-08T04:08:50;-3.60;99.90
33093;DHT22;19456;46.104;12.908;2023-02-08T04:11:15;-4.00;99.90
33093;DHT22;19456;46.104;12.908;2023-02-08T04:13:41;-4.10;99.90
33093;DHT22;19456;46.104;12.908;2023-02-08T04:16:08;-3.90;99.90
33093;DHT22;19456;46.104;12.908;2023-02-08T04:18:33;-3.80;99.90
33093;DHT22;19456;46.104;12.908;2023-02-08T04:20:59;-3.90;99.90
33093;DHT22;19456;46.104;12.908;2023-02-08T04:23:24;-3.80;99.90
33093;DHT22;19456;46.104;12.908;2023-02-08T04:25:50;-3.80;99.90
33093;DHT22;19456;46.104;12.908;2023-02-08T04:28:15;-3.80;99.90
33093;DHT22;19456;46.104;12.908;2023-02-08T04:30:41;-3.60;99.90
33093;DHT22;19456;46.104;12.908;2023-02-08T04:33:07;-3.40;99.90
33093;DHT22;19456;46.104;12.908;2023-02-08T04:35:32;-3.30;99.90
33093;DHT22;19456;46.104;12.908;2023-02-08T04:37:58;-3.30;99.90
33093;DHT22;19456;46.104;12.908;2023-02-08T04:40:24;-3.30;99.90
33093;DHT22;19456;46.104;12.908;2023-02-08T04:42:52;-3.30;99.90
33093;DHT22;19456;46.104;12.908;2023-02-08T04:45:18;-3.30;99.90
33093;DHT22;19456;46.104;12.908;2023-02-08T04:47:43;-3.30;99.90
33093;DHT22;19456;46.104;12.908;2023-02-08T04:50:11;-3.20;99.90
33093;DHT22;19456;46.104;12.908;2023-02-08T04:52:37;-3.10;99.90
33093;DHT22;19456;46.104;12.908;2023-02-08T04:55:02;-3.00;99.90
33093;DHT22;19456;46.104;12.908;2023-02-08T04:57:28;-2.90;99.90
33093;DHT22;19456;46.104;12.908;2023-02-08T04:59:54;-2.80;99.90
33093;DHT22;19456;46.104;12.908;2023-02-08T05:02:19;-2.80;99.90
33093;DHT22;19456;46.104;12.908;2023-02-08T05:04:45;-2.70;99.90
33093;DHT22;19456;46.104;12.908;2023-02-08T05:07:10;-2.60;99.90
33093;DHT22;19456;46.104;12.908;2023-02-08T05:09:36;-2.50;99.90
33093;DHT22;19456;46.104;12.908;2023-02-08T05:12:02;-2.40;99.90
33093;DHT22;19456;46.104;12.908;2023-02-08T05:14:30;-2.30;99.90
33093;DHT22;19456;46.104;12.908;2023-02-08T05:16:56;-2.40;99.90
33093;DHT22;19456;46.104;12.908;2023-02-08T05:19:21;-2.40;99.90
33093;DHT22;19456;46.104;12.908;2023-02-08T05:21:49;-2.40;99.90
33093;DHT22;19456;46.104;12.908;2023-02-08T05:24:15;-2.60;99.90
33093;DHT22;19456;46.104;12.908;2023-02-08T05:26:41;-2.50;99.90
33093;DHT22;19456;46.104;12.908;2023-02-08T05:29:06;-2.50;99.90
33093;DHT22;19456;46.104;12.908;2023-02-08T05:31:32;-2.60;99.90
33093;DHT22;19456;46.104;12.908;2023-02-08T05:33:58;-2.70;99.90
33093;DHT22;19456;46.104;12.908;2023-02-08T05:36:23;-2.70;99.90
33093;DHT22;19456;46.104;12.908;2023-02-08T05:38:49;-2.50;99.90
33093;DHT22;19456;46.104;12.908;2023-02-08T05:41:15;-2.50;99.90
33093;DHT22;19456;46.104;12.908;2023-02-08T05:43:41;-2.40;99.90
33093;DHT22;19456;46.104;12.908;2023-02-08T05:46:06;-2.70;99.90
33093;DHT22;19456;46.104;12.908;2023-02-08T05:48:32;-2.90;99.90
33093;DHT22;19456;46.104;12.908;2023-02-08T05:51:01;-3.30;99.90
33093;DHT22;19456;46.104;12.908;2023-02-08T05:53:26;-3.50;99.90
33093;DHT22;19456;46.104;12.908;2023-02-08T05:55:55;-3.60;99.90
33093;DHT22;19456;46.104;12.908;2023-02-08T05:58:21;-3.50;99.90
33093;DHT22;19456;46.104;12.908;2023-02-08T06:00:47;-3.40;99.90
33093;DHT22;19456;46.104;12.908;2023-02-08T06:03:15;-3.30;99.90
33093;DHT22;19456;46.104;12.908;2023-02-08T06:05:41;-3.20;99.90
33093;DHT22;19456;46.104;12.908;2023-02-08T06:08:14;-3.10;99.90
33093;DHT22;19456;46.104;12.908;2023-02-08T06:10:46;-3.10;99.90
33093;DHT22;19456;46.104;12.908;2023-02-08T06:13:18;-2.80;99.90
33093;DHT22;19456;46.104;12.908;2023-02-08T06:15:52;-2.70;99.90
33093;DHT22;19456;46.104;12.908;2023-02-08T06:18:20;-2.60;99.90
33093;DHT22;19456;46.104;12.908;2023-02-08T06:21:00;-2.60;99.90
33093;DHT22;19456;46.104;12.908;2023-02-08T06:23:28;-2.60;99.90
33093;DHT22;19456;46.104;12.908;2023-02-08T06:25:53;-2.50;99.90
33093;DHT22;19456;46.104;12.908;2023-02-08T06:28:19;-2.60;99.90
33093;DHT22;19456;46.104;12.908;2023-02-08T06:30:44;-2.60;99.90
33093;DHT22;19456;46.104;12.908;2023-02-08T06:33:10;-2.70;99.90
33093;DHT22;19456;46.104;12.908;2023-02-08T06:35:35;-2.70;99.90
33093;DHT22;19456;46.104;12.908;2023-02-08T06:38:04;-2.80;99.90
33093;DHT22;19456;46.104;12.908;2023-02-08T06:40:30;-2.90;99.90
33093;DHT22;19456;46.104;12.908;2023-02-08T06:42:55;-3.10;99.90
33093;DHT22;19456;46.104;12.908;2023-02-08T06:45:21;-3.20;99.90
33093;DHT22;19456;46.104;12.908;2023-02-08T06:47:50;-3.30;99.90
33093;DHT22;19456;46.104;12.908;2023-02-08T06:50:15;-3.00;99.90
33093;DHT22;19456;46.104;12.908;2023-02-08T06:52:41;-2.90;99.90
33093;DHT22;19456;46.104;12.908;2023-02-08T06:55:13;-2.90;99.90
33093;DHT22;19456;46.104;12.908;2023-02-08T06:57:40;-2.90;99.90
33093;DHT22;19456;46.104;12.908;2023-02-08T07:00:08;-3.10;99.90
33093;DHT22;19456;46.104;12.908;2023-02-08T07:02:38;-3.30;99.90
33093;DHT22;19456;46.104;12.908;2023-02-08T07:05:04;-3.30;99.90
33093;DHT22;19456;46.104;12.908;2023-02-08T07:07:45;-3.30;99.90
33093;DHT22;19456;46.104;12.908;2023-02-08T07:10:13;-3.20;99.90
33093;DHT22;19456;46.104;12.908;2023-02-08T07:12:39;-3.20;99.90
33093;DHT22;19456;46.104;12.908;2023-02-08T07:15:04;-3.10;99.90
33093;DHT22;19456;46.104;12.908;2023-02-08T07:17:30;-3.10;99.90
33093;DHT22;19456;46.104;12.908;2023-02-08T07:19:56;-3.10;99.90
33093;DHT22;19456;46.104;12.908;2023-02-08T07:22:21;-2.90;99.90
33093;DHT22;19456;46.104;12.908;2023-02-08T07:24:47;-2.90;99.90
33093;DHT22;19456;46.104;12.908;2023-02-08T07:27:13;-2.90;99.90
33093;DHT22;19456;46.104;12.908;2023-02-08T07:29:38;-2.90;99.90
33093;DHT22;19456;46.104;12.908;2023-02-08T07:32:05;-2.90;99.90
33093;DHT22;19456;46.104;12.908;2023-02-08T07:34:31;-2.90;99.90
33093;DHT22;19456;46.104;12.908;2023-02-08T07:36:57;-2.80;99.90
33093;DHT22;19456;46.104;12.908;2023-02-08T07:39:23;-2.60;99.90
33093;DHT22;19456;46.104;12.908;2023-02-08T07:41:49;-2.50;99.90
33093;DHT22;19456;46.104;12.908;2023-02-08T07:44:14;-2.30;99.90
33093;DHT22;19456;46.104;12.908;2023-02-08T07:46:40;-2.20;99.90
33093;DHT22;19456;46.104;12.908;2023-02-08T07:49:06;-2.30;99.90
33093;DHT22;19456;46.104;12.908;2023-02-08T07:51:31;-2.10;99.90
33093;DHT22;19456;46.104;12.908;2023-02-08T07:54:00;-1.90;99.90
33093;DHT22;19456;46.104;12.908;2023-02-08T07:56:26;-1.80;99.90
33093;DHT22;19456;46.104;12.908;2023-02-08T07:58:51;-1.90;99.90
33093;DHT22;19456;46.104;12.908;2023-02-08T08:01:17;-1.90;99.90
33093;DHT22;19456;46.104;12.908;2023-02-08T08:03:42;-1.70;99.90
33093;DHT22;19456;46.104;12.908;2023-02-08T08:06:08;-1.50;99.90
33093;DHT22;19456;46.104;12.908;2023-02-08T08:08:34;-1.40;99.90
33093;DHT22;19456;46.104;12.908;2023-02-08T08:11:00;-1.30;99.90
33093;DHT22;19456;46.104;12.908;2023-02-08T08:13:25;-1.10;99.90
33093;DHT22;19456;46.104;12.908;2023-02-08T08:15:51;-0.90;99.90
33093;DHT22;19456;46.104;12.908;2023-02-08T08:18:17;-0.60;99.90
33093;DHT22;19456;46.104;12.908;2023-02-08T08:20:42;-0.40;99.90
33093;DHT22;19456;46.104;12.908;2023-02-08T08:23:08;-0.30;99.90
33093;DHT22;19456;46.104;12.908;2023-02-08T08:25:34;-0.20;99.90
33093;DHT22;19456;46.104;12.908;2023-02-08T08:28:01;-0.10;99.90
33093;DHT22;19456;46.104;12.908;2023-02-08T08:30:26;0.10;99.90
33093;DHT22;19456;46.104;12.908;2023-02-08T08:32:52;0.20;99.90
33093;DHT22;19456;46.104;12.908;2023-02-08T08:35:18;0.30;99.90
33093;DHT22;19456;46.104;12.908;2023-02-08T08:37:43;0.40;99.90
33093;DHT22;19456;46.104;12.908;2023-02-08T08:40:09;0.40;99.90
33093;DHT22;19456;46.104;12.908;2023-02-08T08:42:35;0.40;99.90
33093;DHT22;19456;46.104;12.908;2023-02-08T08:45:01;0.50;99.90
33093;DHT22;19456;46.104;12.908;2023-02-08T08:47:28;0.70;99.90
33093;DHT22;19456;46.104;12.908;2023-02-08T08:49:53;0.80;99.90
33093;DHT22;19456;46.104;12.908;2023-02-08T08:52:19;0.90;99.90
33093;DHT22;19456;46.104;12.908;2023-02-08T08:54:45;1.10;99.90
33093;DHT22;19456;46.104;12.908;2023-02-08T08:57:14;1.20;99.90
33093;DHT22;19456;46.104;12.908;2023-02-08T08:59:42;1.30;99.90
33093;DHT22;19456;46.104;12.908;2023-02-08T09:02:11;1.40;99.90
33093;DHT22;19456;46.104;12.908;2023-02-08T09:04:37;1.50;99.90
33093;DHT22;19456;46.104;12.908;2023-02-08T09:07:05;1.60;99.90
33093;DHT22;19456;46.104;12.908;2023-02-08T09:09:31;1.60;99.90
33093;DHT22;19456;46.104;12.908;2023-02-08T09:11:57;1.70;99.90
33093;DHT22;19456;46.104;12.908;2023-02-08T09:14:23;1.70;99.90
33093;DHT22;19456;46.104;12.908;2023-02-08T09:16:48;1.80;99.90
33093;DHT22;19456;46.104;12.908;2023-02-08T09:19:15;1.90;99.90
33093;DHT22;19456;46.104;12.908;2023-02-08T09:21:41;1.90;99.90
33093;DHT22;19456;46.104;12.908;2023-02-08T09:24:07;1.90;99.90
33093;DHT22;19456;46.104;12.908;2023-02-08T09:26:33;1.80;99.90
33093;DHT22;19456;46.104;12.908;2023-02-08T09:28:59;1.90;99.90
33093;DHT22;19456;46.104;12.908;2023-02-08T09:31:26;2.00;99.90
33093;DHT22;19456;46.104;12.908;2023-02-08T09:33:53;2.20;99.90
33093;DHT22;19456;46.104;12.908;2023-02-08T09:36:19;2.30;99.90
33093;DHT22;19456;46.104;12.908;2023-02-08T09:38:45;2.50;99.90
33093;DHT22;19456;46.104;12.908;2023-02-08T09:46:18;2.60;99.90
33093;DHT22;19456;46.104;12.908;2023-02-08T09:51:57;2.90;99.90
33093;DHT22;19456;46.104;12.908;2023-02-08T09:54:43;3.20;99.90
33093;DHT22;19456;46.104;12.908;2023-02-08T09:57:19;3.50;99.90
33093;DHT22;19456;46.104;12.908;2023-02-08T09:59:51;3.70;99.90
33093;DHT22;19456;46.104;12.908;2023-02-08T10:02:38;3.90;99.90
33093;DHT22;19456;46.104;12.908;2023-02-08T10:42:35;4.40;99.90
33093;DHT22;19456;46.104;12.908;2023-02-08T10:48:26;4.60;99.90
33093;DHT22;19456;46.104;12.908;2023-02-08T11:22:34;6.20;99.90
33093;DHT22;19456;46.104;12.908;2023-02-08T11:28:31;7.40;97.10
33093;DHT22;19456;46.104;12.908;2023-02-08T11:50:37;10.50;83.40
33093;DHT22;19456;46.104;12.908;2023-02-08T11:53:21;11.00;82.50
33093;DHT22;19456;46.104;12.908;2023-02-08T11:58:36;11.10;79.30
33093;DHT22;19456;46.104;12.908;2023-02-08T12:03:29;12.10;75.60
33093;DHT22;19456;46.104;12.908;2023-02-08T12:08:36;12.60;69.60
33093;DHT22;19456;46.104;12.908;2023-02-08T12:11:12;11.80;69.30
33093;DHT22;19456;46.104;12.908;2023-02-08T12:16:18;12.40;68.20
33093;DHT22;19456;46.104;12.908;2023-02-08T12:21:16;12.80;65.00
33093;DHT22;19456;46.104;12.908;2023-02-08T12:26:16;12.60;65.60
33093;DHT22;19456;46.104;12.908;2023-02-08T12:28:53;12.80;64.40
33093;DHT22;19456;46.104;12.908;2023-02-08T12:31:29;13.20;63.80
33093;DHT22;19456;46.104;12.908;2023-02-08T12:39:14;14.20;59.50
33093;DHT22;19456;46.104;12.908;2023-02-08T12:42:43;14.60;57.60
33093;DHT22;19456;46.104;12.908;2023-02-08T12:44:59;13.00;58.20
33093;DHT22;19456;46.104;12.908;2023-02-08T12:47:32;13.70;59.00
33093;DHT22;19456;46.104;12.908;2023-02-08T12:50:10;14.50;57.60
33093;DHT22;19456;46.104;12.908;2023-02-08T12:52:45;15.10;56.40
33093;DHT22;19456;46.104;12.908;2023-02-08T12:57:38;15.80;54.00
33093;DHT22;19456;46.104;12.908;2023-02-08T13:02:46;15.60;53.10
33093;DHT22;19456;46.104;12.908;2023-02-08T13:05:19;16.40;52.00
33093;DHT22;19456;46.104;12.908;2023-02-08T13:07:45;15.30;52.00
33093;DHT22;19456;46.104;12.908;2023-02-08T13:12:47;14.70;52.50
33093;DHT22;19456;46.104;12.908;2023-02-08T13:15:19;15.60;51.70
33093;DHT22;19456;46.104;12.908;2023-02-08T13:17:59;16.10;51.30
33093;DHT22;19456;46.104;12.908;2023-02-08T13:23:13;16.00;50.10
33093;DHT22;19456;46.104;12.908;2023-02-08T13:25:40;16.10;49.70
33093;DHT22;19456;46.104;12.908;2023-02-08T13:28:07;16.60;49.20
33093;DHT22;19456;46.104;12.908;2023-02-08T13:30:35;17.10;47.60
33093;DHT22;19456;46.104;12.908;2023-02-08T13:33:12;17.30;47.60
33093;DHT22;19456;46.104;12.908;2023-02-08T13:35:40;17.50;47.20
33093;DHT22;19456;46.104;12.908;2023-02-08T13:38:27;16.70;47.40
33093;DHT22;19456;46.104;12.908;2023-02-08T13:41:05;16.90;47.50
33093;DHT22;19456;46.104;12.908;2023-02-08T13:43:35;17.10;47.20
33093;DHT22;19456;46.104;12.908;2023-02-08T13:46:02;17.20;46.80
33093;DHT22;19456;46.104;12.908;2023-02-08T13:48:28;17.20;46.10
33093;DHT22;19456;46.104;12.908;2023-02-08T13:51:04;17.40;46.80
33093;DHT22;19456;46.104;12.908;2023-02-08T13:56:12;16.80;46.20
33093;DHT22;19456;46.104;12.908;2023-02-08T14:01:19;17.10;46.20
33093;DHT22;19456;46.104;12.908;2023-02-08T14:04:14;16.80;46.10
33093;DHT22;19456;46.104;12.908;2023-02-08T14:06:30;17.60;45.40
33093;DHT22;19456;46.104;12.908;2023-02-08T14:09:10;18.10;44.20
33093;DHT22;19456;46.104;12.908;2023-02-08T14:14:21;18.00;42.90
33093;DHT22;19456;46.104;12.908;2023-02-08T14:17:10;17.80;43.50
33093;DHT22;19456;46.104;12.908;2023-02-08T14:19:34;17.90;43.40
33093;DHT22;19456;46.104;12.908;2023-02-08T14:22:02;17.10;43.50
33093;DHT22;19456;46.104;12.908;2023-02-08T14:24:29;16.60;44.40
33093;DHT22;19456;46.104;12.908;2023-02-08T14:30:45;16.90;44.30
33093;DHT22;19456;46.104;12.908;2023-02-08T14:32:40;17.30;43.80
33093;DHT22;19456;46.104;12.908;2023-02-08T14:37:38;17.70;43.10
33093;DHT22;19456;46.104;12.908;2023-02-08T14:47:53;14.80;45.00
33093;DHT22;19456;46.104;12.908;2023-02-08T14:50:21;13.00;46.60
33093;DHT22;19456;46.104;12.908;2023-02-08T14:55:33;10.60;52.00
33093;DHT22;19456;46.104;12.908;2023-02-08T14:58:01;9.20;54.00
33093;DHT22;19456;46.104;12.908;2023-02-08T15:00:32;8.60;54.70
33093;DHT22;19456;46.104;12.908;2023-02-08T15:02:58;8.10;56.30
33093;DHT22;19456;46.104;12.908;2023-02-08T15:05:34;8.00;56.90
33093;DHT22;19456;46.104;12.908;2023-02-08T15:08:00;7.70;57.50
33093;DHT22;19456;46.104;12.908;2023-02-08T15:10:26;7.50;57.60
33093;DHT22;19456;46.104;12.908;2023-02-08T15:12:53;7.30;58.30
33093;DHT22;19456;46.104;12.908;2023-02-08T15:15:27;7.20;58.90
33093;DHT22;19456;46.104;12.908;2023-02-08T15:17:56;6.60;59.70
33093;DHT22;19456;46.104;12.908;2023-02-08T15:20:23;6.60;60.50
33093;DHT22;19456;46.104;12.908;2023-02-08T15:23:03;6.50;60.90
33093;DHT22;19456;46.104;12.908;2023-02-08T15:25:29;6.50;60.80
33093;DHT22;19456;46.104;12.908;2023-02-08T15:27:57;6.50;61.10
33093;DHT22;19456;46.104;12.908;2023-02-08T15:30:24;6.00;62.90
33093;DHT22;19456;46.104;12.908;2023-02-08T15:32:50;5.90;63.30
33093;DHT22;19456;46.104;12.908;2023-02-08T15:35:16;5.90;64.10
33093;DHT22;19456;46.104;12.908;2023-02-08T15:37:42;5.90;64.00
33093;DHT22;19456;46.104;12.908;2023-02-08T15:40:19;5.90;63.30
33093;DHT22;19456;46.104;12.908;2023-02-08T15:42:45;5.90;62.60
33093;DHT22;19456;46.104;12.908;2023-02-08T15:47:45;5.70;63.50
33093;DHT22;19456;46.104;12.908;2023-02-08T15:50:14;5.50;63.90
33093;DHT22;19456;46.104;12.908;2023-02-08T15:52:41;5.50;63.90
33093;DHT22;19456;46.104;12.908;2023-02-08T15:55:07;5.30;64.80
33093;DHT22;19456;46.104;12.908;2023-02-08T15:57:35;5.20;64.20
33093;DHT22;19456;46.104;12.908;2023-02-08T16:00:04;5.20;64.00
33093;DHT22;19456;46.104;12.908;2023-02-08T16:02:30;5.10;63.60
33093;DHT22;19456;46.104;12.908;2023-02-08T16:04:57;5.00;64.20
33093;DHT22;19456;46.104;12.908;2023-02-08T16:07:36;4.80;64.80
33093;DHT22;19456;46.104;12.908;2023-02-08T16:10:02;4.40;66.20
33093;DHT22;19456;46.104;12.908;2023-02-08T16:12:28;4.40;66.30
33093;DHT22;19456;46.104;12.908;2023-02-08T16:14:54;4.40;66.30
33093;DHT22;19456;46.104;12.908;2023-02-08T16:17:31;4.30;66.50
33093;DHT22;19456;46.104;12.908;2023-02-08T16:19:57;4.30;67.00
33093;DHT22;19456;46.104;12.908;2023-02-08T16:22:24;4.10;67.40
33093;DHT22;19456;46.104;12.908;2023-02-08T16:24:52;4.00;68.50
33093;DHT22;19456;46.104;12.908;2023-02-08T16:27:24;4.00;69.20
33093;DHT22;19456;46.104;12.908;2023-02-08T16:29:50;3.90;69.80
33093;DHT22;19456;46.104;12.908;2023-02-08T16:34:44;3.70;69.60
33093;DHT22;19456;46.104;12.908;2023-02-08T16:37:19;3.80;69.20
33093;DHT22;19456;46.104;12.908;2023-02-08T16:39:53;3.70;69.20
33093;DHT22;19456;46.104;12.908;2023-02-08T16:47:24;3.70;69.60
33093;DHT22;19456;46.104;12.908;2023-02-08T16:49:50;3.60;69.90
33093;DHT22;19456;46.104;12.908;2023-02-08T16:52:15;3.50;70.70
33093;DHT22;19456;46.104;12.908;2023-02-08T16:54:41;3.40;71.10
33093;DHT22;19456;46.104;12.908;2023-02-08T16:57:06;3.10;72.10
33093;DHT22;19456;46.104;12.908;2023-02-08T16:59:33;3.20;72.00
33093;DHT22;19456;46.104;12.908;2023-02-08T17:01:59;3.00;73.30
33093;DHT22;19456;46.104;12.908;2023-02-08T17:04:25;2.90;73.40
33093;DHT22;19456;46.104;12.908;2023-02-08T17:06:51;2.90;73.00
33093;DHT22;19456;46.104;12.908;2023-02-08T17:09:16;3.10;72.70
33093;DHT22;19456;46.104;12.908;2023-02-08T17:11:42;3.30;72.50
33093;DHT22;19456;46.104;12.908;2023-02-08T17:14:07;3.20;72.20
33093;DHT22;19456;46.104;12.908;2023-02-08T17:16:35;3.10;72.40
33093;DHT22;19456;46.104;12.908;2023-02-08T17:19:01;3.20;72.60
33093;DHT22;19456;46.104;12.908;2023-02-08T17:21:27;3.00;73.20
33093;DHT22;19456;46.104;12.908;2023-02-08T17:23:56;3.10;73.70
33093;DHT22;19456;46.104;12.908;2023-02-08T17:26:26;3.10;73.90
33093;DHT22;19456;46.104;12.908;2023-02-08T17:28:56;3.00;73.70
33093;DHT22;19456;46.104;12.908;2023-02-08T17:31:23;3.00;73.80
33093;DHT22;19456;46.104;12.908;2023-02-08T17:33:49;3.00;74.20
33093;DHT22;19456;46.104;12.908;2023-02-08T17:36:15;2.90;74.50
33093;DHT22;19456;46.104;12.908;2023-02-08T17:38:41;2.90;74.50
33093;DHT22;19456;46.104;12.908;2023-02-08T17:41:19;2.90;74.50
33093;DHT22;19456;46.104;12.908;2023-02-08T17:43:47;2.90;74.70
33093;DHT22;19456;46.104;12.908;2023-02-08T17:46:15;2.90;74.80
33093;DHT22;19456;46.104;12.908;2023-02-08T17:48:41;2.80;75.00
33093;DHT22;19456;46.104;12.908;2023-02-08T17:51:10;2.90;75.00
33093;DHT22;19456;46.104;12.908;2023-02-08T17:53:38;2.90;74.50
33093;DHT22;19456;46.104;12.908;2023-02-08T17:56:08;2.90;75.00
33093;DHT22;19456;46.104;12.908;2023-02-08T17:58:34;2.90;75.30
33093;DHT22;19456;46.104;12.908;2023-02-08T18:01:00;2.80;76.00
33093;DHT22;19456;46.104;12.908;2023-02-08T18:03:26;2.70;76.10
33093;DHT22;19456;46.104;12.908;2023-02-08T18:05:56;2.80;76.20
33093;DHT22;19456;46.104;12.908;2023-02-08T18:08:22;2.70;75.90
33093;DHT22;19456;46.104;12.908;2023-02-08T18:10:47;2.80;75.90
33093;DHT22;19456;46.104;12.908;2023-02-08T18:13:13;2.90;75.30
33093;DHT22;19456;46.104;12.908;2023-02-08T18:15:40;2.80;75.30
33093;DHT22;19456;46.104;12.908;2023-02-08T18:18:05;2.80;75.50
33093;DHT22;19456;46.104;12.908;2023-02-08T18:20:31;2.80;75.60
33093;DHT22;19456;46.104;12.908;2023-02-08T18:22:56;2.80;75.50
33093;DHT22;19456;46.104;12.908;2023-02-08T18:25:22;2.70;75.70
33093;DHT22;19456;46.104;12.908;2023-02-08T18:27:48;2.70;76.20
33093;DHT22;19456;46.104;12.908;2023-02-08T18:30:14;2.60;76.70
33093;DHT22;19456;46.104;12.908;2023-02-08T18:32:39;2.50;76.90
33093;DHT22;19456;46.104;12.908;2023-02-08T18:35:05;2.40;77.00
33093;DHT22;19456;46.104;12.908;2023-02-08T18:37:32;2.50;77.00
33093;DHT22;19456;46.104;12.908;2023-02-08T18:39:58;2.60;76.20
33093;DHT22;19456;46.104;12.908;2023-02-08T18:42:24;2.70;75.70
33093;DHT22;19456;46.104;12.908;2023-02-08T18:44:49;2.80;75.20
33093;DHT22;19456;46.104;12.908;2023-02-08T18:47:16;2.70;75.40
33093;DHT22;19456;46.104;12.908;2023-02-08T18:49:41;2.70;75.60
33093;DHT22;19456;46.104;12.908;2023-02-08T18:52:08;2.70;75.90
33093;DHT22;19456;46.104;12.908;2023-02-08T18:54:33;2.70;75.60
33093;DHT22;19456;46.104;12.908;2023-02-08T18:57:00;2.70;75.50
33093;DHT22;19456;46.104;12.908;2023-02-08T18:59:25;2.70;75.60
33093;DHT22;19456;46.104;12.908;2023-02-08T19:01:51;2.70;75.50
33093;DHT22;19456;46.104;12.908;2023-02-08T19:04:16;2.70;75.70